Аэропорт: Звартноц. Ереван

ICAO: UDYZ

METAR:
2019/03/26 13:00
UDYZ 261300Z VRB01KT 9999 BKN033 08/02 Q1013 R09/010070 NOSIG
METAR:
2019/03/26 12:00
TAF UDYZ 261103Z 2612/2712 04006KT 9999 BKN030 
      TEMPO 2612/2622 -RA FEW007 OVC020